sensor_id;sensor_type;location;lat;lon;timestamp;P1;durP1;ratioP1;P2;durP2;ratioP2
58896;SDS011;44677;52.378;10.400;2023-12-22T00:02:03;11.10;;;2.70;;
58896;SDS011;44677;52.378;10.400;2023-12-22T00:04:28;9.20;;;2.60;;
58896;SDS011;44677;52.378;10.400;2023-12-22T00:06:54;9.00;;;2.40;;
58896;SDS011;44677;52.378;10.400;2023-12-22T00:09:20;10.30;;;2.30;;
58896;SDS011;44677;52.378;10.400;2023-12-22T00:11:45;18.30;;;4.70;;
58896;SDS011;44677;52.378;10.400;2023-12-22T00:14:11;11.60;;;3.10;;
58896;SDS011;44677;52.378;10.400;2023-12-22T00:16:37;11.80;;;2.50;;
58896;SDS011;44677;52.378;10.400;2023-12-22T00:19:03;10.40;;;2.80;;
58896;SDS011;44677;52.378;10.400;2023-12-22T00:21:28;8.70;;;2.50;;
58896;SDS011;44677;52.378;10.400;2023-12-22T00:23:54;12.40;;;3.40;;
58896;SDS011;44677;52.378;10.400;2023-12-22T00:26:19;10.00;;;2.50;;
58896;SDS011;44677;52.378;10.400;2023-12-22T00:28:45;14.00;;;2.80;;
58896;SDS011;44677;52.378;10.400;2023-12-22T00:31:10;11.50;;;2.00;;
58896;SDS011;44677;52.378;10.400;2023-12-22T00:36:03;6.20;;;2.10;;
58896;SDS011;44677;52.378;10.400;2023-12-22T00:38:28;11.00;;;2.60;;
58896;SDS011;44677;52.378;10.400;2023-12-22T00:40:54;8.00;;;2.90;;
58896;SDS011;44677;52.378;10.400;2023-12-22T00:43:19;12.60;;;2.20;;
58896;SDS011;44677;52.378;10.400;2023-12-22T00:45:45;9.50;;;2.60;;
58896;SDS011;44677;52.378;10.400;2023-12-22T00:48:10;13.70;;;3.00;;
58896;SDS011;44677;52.378;10.400;2023-12-22T00:50:35;12.10;;;3.40;;
58896;SDS011;44677;52.378;10.400;2023-12-22T00:53:01;11.90;;;2.80;;
58896;SDS011;44677;52.378;10.400;2023-12-22T00:55:27;14.60;;;3.40;;
58896;SDS011;44677;52.378;10.400;2023-12-22T00:57:52;15.60;;;3.10;;
58896;SDS011;44677;52.378;10.400;2023-12-22T01:00:17;18.60;;;3.10;;
58896;SDS011;44677;52.378;10.400;2023-12-22T01:02:43;15.60;;;3.00;;
58896;SDS011;44677;52.378;10.400;2023-12-22T01:05:09;17.70;;;4.20;;
58896;SDS011;44677;52.378;10.400;2023-12-22T01:07:35;14.50;;;2.90;;
58896;SDS011;44677;52.378;10.400;2023-12-22T01:10:01;17.80;;;3.40;;
58896;SDS011;44677;52.378;10.400;2023-12-22T01:12:27;14.40;;;3.00;;
58896;SDS011;44677;52.378;10.400;2023-12-22T01:14:53;10.70;;;2.70;;
58896;SDS011;44677;52.378;10.400;2023-12-22T01:17:20;12.00;;;2.90;;
58896;SDS011;44677;52.378;10.400;2023-12-22T01:19:45;14.00;;;2.50;;
58896;SDS011;44677;52.378;10.400;2023-12-22T01:22:10;9.50;;;2.30;;
58896;SDS011;44677;52.378;10.400;2023-12-22T01:24:36;11.60;;;2.80;;
58896;SDS011;44677;52.378;10.400;2023-12-22T01:27:04;12.70;;;3.60;;
58896;SDS011;44677;52.378;10.400;2023-12-22T01:29:30;11.80;;;2.80;;
58896;SDS011;44677;52.378;10.400;2023-12-22T01:31:55;11.10;;;2.40;;
58896;SDS011;44677;52.378;10.400;2023-12-22T01:34:21;8.00;;;2.30;;
58896;SDS011;44677;52.378;10.400;2023-12-22T01:36:46;12.70;;;2.40;;
58896;SDS011;44677;52.378;10.400;2023-12-22T01:39:11;10.30;;;2.50;;
58896;SDS011;44677;52.378;10.400;2023-12-22T01:41:37;11.40;;;2.30;;
58896;SDS011;44677;52.378;10.400;2023-12-22T01:44:02;11.20;;;3.10;;
58896;SDS011;44677;52.378;10.400;2023-12-22T01:46:27;8.20;;;3.00;;
58896;SDS011;44677;52.378;10.400;2023-12-22T01:48:53;10.90;;;2.80;;
58896;SDS011;44677;52.378;10.400;2023-12-22T01:51:19;11.30;;;3.10;;
58896;SDS011;44677;52.378;10.400;2023-12-22T01:53:45;11.90;;;2.20;;
58896;SDS011;44677;52.378;10.400;2023-12-22T01:56:10;10.40;;;2.50;;
58896;SDS011;44677;52.378;10.400;2023-12-22T01:58:36;11.50;;;2.30;;
58896;SDS011;44677;52.378;10.400;2023-12-22T02:01:04;10.50;;;2.80;;
58896;SDS011;44677;52.378;10.400;2023-12-22T02:03:30;7.50;;;1.70;;
58896;SDS011;44677;52.378;10.400;2023-12-22T02:05:55;8.20;;;1.80;;
58896;SDS011;44677;52.378;10.400;2023-12-22T02:08:22;8.60;;;2.30;;
58896;SDS011;44677;52.378;10.400;2023-12-22T02:10:48;9.20;;;2.50;;
58896;SDS011;44677;52.378;10.400;2023-12-22T02:13:13;12.70;;;2.90;;
58896;SDS011;44677;52.378;10.400;2023-12-22T02:15:39;6.50;;;1.70;;
58896;SDS011;44677;52.378;10.400;2023-12-22T02:18:12;6.40;;;1.90;;
58896;SDS011;44677;52.378;10.400;2023-12-22T02:20:40;10.00;;;2.10;;
58896;SDS011;44677;52.378;10.400;2023-12-22T02:23:06;9.20;;;2.10;;
58896;SDS011;44677;52.378;10.400;2023-12-22T02:25:31;6.90;;;2.40;;
58896;SDS011;44677;52.378;10.400;2023-12-22T02:28:04;8.50;;;2.70;;
58896;SDS011;44677;52.378;10.400;2023-12-22T02:30:32;6.50;;;1.90;;
58896;SDS011;44677;52.378;10.400;2023-12-22T02:33:03;7.40;;;2.50;;
58896;SDS011;44677;52.378;10.400;2023-12-22T02:35:30;11.30;;;2.60;;
58896;SDS011;44677;52.378;10.400;2023-12-22T02:37:59;8.00;;;1.80;;
58896;SDS011;44677;52.378;10.400;2023-12-22T02:40:26;6.60;;;1.70;;
58896;SDS011;44677;52.378;10.400;2023-12-22T02:42:52;8.80;;;2.10;;
58896;SDS011;44677;52.378;10.400;2023-12-22T02:45:18;6.10;;;2.00;;
58896;SDS011;44677;52.378;10.400;2023-12-22T02:47:44;8.60;;;1.90;;
58896;SDS011;44677;52.378;10.400;2023-12-22T02:50:10;7.50;;;2.60;;
58896;SDS011;44677;52.378;10.400;2023-12-22T02:52:37;9.00;;;2.30;;
58896;SDS011;44677;52.378;10.400;2023-12-22T02:55:03;9.20;;;2.30;;
58896;SDS011;44677;52.378;10.400;2023-12-22T02:57:28;9.70;;;2.20;;
58896;SDS011;44677;52.378;10.400;2023-12-22T02:59:54;15.10;;;2.50;;
58896;SDS011;44677;52.378;10.400;2023-12-22T03:02:19;11.30;;;2.70;;
58896;SDS011;44677;52.378;10.400;2023-12-22T03:04:45;11.60;;;3.10;;
58896;SDS011;44677;52.378;10.400;2023-12-22T03:07:11;8.50;;;2.10;;
58896;SDS011;44677;52.378;10.400;2023-12-22T03:09:37;9.90;;;2.30;;
58896;SDS011;44677;52.378;10.400;2023-12-22T03:12:03;5.50;;;1.80;;
58896;SDS011;44677;52.378;10.400;2023-12-22T03:14:29;4.60;;;1.20;;
58896;SDS011;44677;52.378;10.400;2023-12-22T03:16:55;8.10;;;2.00;;
58896;SDS011;44677;52.378;10.400;2023-12-22T03:19:21;4.80;;;1.00;;
58896;SDS011;44677;52.378;10.400;2023-12-22T03:21:48;6.00;;;1.40;;
58896;SDS011;44677;52.378;10.400;2023-12-22T03:24:13;3.90;;;1.00;;
58896;SDS011;44677;52.378;10.400;2023-12-22T03:26:38;2.00;;;0.80;;
58896;SDS011;44677;52.378;10.400;2023-12-22T03:29:04;4.90;;;1.10;;
58896;SDS011;44677;52.378;10.400;2023-12-22T03:31:30;3.60;;;1.10;;
58896;SDS011;44677;52.378;10.400;2023-12-22T03:33:55;3.50;;;0.90;;
58896;SDS011;44677;52.378;10.400;2023-12-22T03:36:21;3.70;;;1.10;;
58896;SDS011;44677;52.378;10.400;2023-12-22T03:38:47;6.60;;;1.30;;
58896;SDS011;44677;52.378;10.400;2023-12-22T03:41:12;8.60;;;1.50;;
58896;SDS011;44677;52.378;10.400;2023-12-22T03:43:38;6.00;;;1.60;;
58896;SDS011;44677;52.378;10.400;2023-12-22T03:46:03;4.40;;;1.20;;
58896;SDS011;44677;52.378;10.400;2023-12-22T03:48:28;3.80;;;1.60;;
58896;SDS011;44677;52.378;10.400;2023-12-22T03:50:54;5.50;;;1.70;;
58896;SDS011;44677;52.378;10.400;2023-12-22T03:53:19;4.60;;;1.30;;
58896;SDS011;44677;52.378;10.400;2023-12-22T03:55:45;9.20;;;1.70;;
58896;SDS011;44677;52.378;10.400;2023-12-22T03:58:10;7.60;;;1.50;;
58896;SDS011;44677;52.378;10.400;2023-12-22T04:00:35;9.90;;;1.40;;
58896;SDS011;44677;52.378;10.400;2023-12-22T04:03:01;5.60;;;1.50;;
58896;SDS011;44677;52.378;10.400;2023-12-22T04:05:27;6.80;;;1.50;;
58896;SDS011;44677;52.378;10.400;2023-12-22T04:07:53;5.60;;;1.60;;
58896;SDS011;44677;52.378;10.400;2023-12-22T04:10:18;7.20;;;1.40;;
58896;SDS011;44677;52.378;10.400;2023-12-22T04:12:44;8.70;;;1.40;;
58896;SDS011;44677;52.378;10.400;2023-12-22T04:15:09;5.50;;;1.50;;
58896;SDS011;44677;52.378;10.400;2023-12-22T04:17:35;9.20;;;2.00;;
58896;SDS011;44677;52.378;10.400;2023-12-22T04:20:00;9.80;;;2.00;;
58896;SDS011;44677;52.378;10.400;2023-12-22T04:22:26;11.90;;;2.30;;
58896;SDS011;44677;52.378;10.400;2023-12-22T04:24:51;11.10;;;2.00;;
58896;SDS011;44677;52.378;10.400;2023-12-22T04:27:17;9.80;;;2.20;;
58896;SDS011;44677;52.378;10.400;2023-12-22T04:29:42;6.80;;;1.70;;
58896;SDS011;44677;52.378;10.400;2023-12-22T04:32:08;9.30;;;2.60;;
58896;SDS011;44677;52.378;10.400;2023-12-22T04:34:33;10.10;;;2.20;;
58896;SDS011;44677;52.378;10.400;2023-12-22T04:36:58;9.00;;;2.80;;
58896;SDS011;44677;52.378;10.400;2023-12-22T04:39:24;12.20;;;2.80;;
58896;SDS011;44677;52.378;10.400;2023-12-22T04:41:49;10.70;;;2.00;;
58896;SDS011;44677;52.378;10.400;2023-12-22T04:44:14;14.30;;;3.40;;
58896;SDS011;44677;52.378;10.400;2023-12-22T04:46:40;5.60;;;1.80;;
58896;SDS011;44677;52.378;10.400;2023-12-22T04:49:05;10.40;;;2.20;;
58896;SDS011;44677;52.378;10.400;2023-12-22T04:51:31;9.00;;;2.30;;
58896;SDS011;44677;52.378;10.400;2023-12-22T04:53:56;9.30;;;2.30;;
58896;SDS011;44677;52.378;10.400;2023-12-22T04:56:21;8.10;;;2.10;;
58896;SDS011;44677;52.378;10.400;2023-12-22T04:58:47;10.70;;;2.60;;
58896;SDS011;44677;52.378;10.400;2023-12-22T05:01:12;11.30;;;2.40;;
58896;SDS011;44677;52.378;10.400;2023-12-22T05:03:38;10.80;;;2.60;;
58896;SDS011;44677;52.378;10.400;2023-12-22T05:06:03;8.80;;;2.80;;
58896;SDS011;44677;52.378;10.400;2023-12-22T05:08:29;11.60;;;2.10;;
58896;SDS011;44677;52.378;10.400;2023-12-22T05:10:54;6.90;;;1.90;;
58896;SDS011;44677;52.378;10.400;2023-12-22T05:13:19;7.50;;;1.70;;
58896;SDS011;44677;52.378;10.400;2023-12-22T05:15:45;6.80;;;1.40;;
58896;SDS011;44677;52.378;10.400;2023-12-22T05:18:10;8.30;;;1.50;;
58896;SDS011;44677;52.378;10.400;2023-12-22T05:20:36;10.60;;;2.00;;
58896;SDS011;44677;52.378;10.400;2023-12-22T05:23:01;6.30;;;1.30;;
58896;SDS011;44677;52.378;10.400;2023-12-22T05:25:27;10.40;;;2.70;;
58896;SDS011;44677;52.378;10.400;2023-12-22T05:27:54;7.50;;;2.40;;
58896;SDS011;44677;52.378;10.400;2023-12-22T05:30:19;6.30;;;1.70;;
58896;SDS011;44677;52.378;10.400;2023-12-22T05:32:45;10.90;;;1.90;;
58896;SDS011;44677;52.378;10.400;2023-12-22T05:35:10;11.00;;;2.40;;
58896;SDS011;44677;52.378;10.400;2023-12-22T05:37:36;8.00;;;1.90;;
58896;SDS011;44677;52.378;10.400;2023-12-22T05:40:01;6.90;;;1.80;;
58896;SDS011;44677;52.378;10.400;2023-12-22T05:42:27;8.80;;;1.90;;
58896;SDS011;44677;52.378;10.400;2023-12-22T05:44:53;10.80;;;1.80;;
58896;SDS011;44677;52.378;10.400;2023-12-22T05:47:18;15.40;;;2.30;;
58896;SDS011;44677;52.378;10.400;2023-12-22T05:49:43;6.80;;;1.60;;
58896;SDS011;44677;52.378;10.400;2023-12-22T05:52:09;9.50;;;1.60;;
58896;SDS011;44677;52.378;10.400;2023-12-22T05:54:35;9.80;;;2.50;;
58896;SDS011;44677;52.378;10.400;2023-12-22T05:57:00;10.50;;;1.60;;
58896;SDS011;44677;52.378;10.400;2023-12-22T05:59:26;11.00;;;2.70;;
58896;SDS011;44677;52.378;10.400;2023-12-22T06:01:53;8.90;;;2.20;;
58896;SDS011;44677;52.378;10.400;2023-12-22T06:04:19;12.60;;;1.90;;
58896;SDS011;44677;52.378;10.400;2023-12-22T06:06:44;13.00;;;2.30;;
58896;SDS011;44677;52.378;10.400;2023-12-22T06:09:10;9.00;;;2.40;;
58896;SDS011;44677;52.378;10.400;2023-12-22T06:11:37;11.90;;;2.30;;
58896;SDS011;44677;52.378;10.400;2023-12-22T06:14:05;8.80;;;2.00;;
58896;SDS011;44677;52.378;10.400;2023-12-22T06:16:31;9.20;;;2.10;;
58896;SDS011;44677;52.378;10.400;2023-12-22T06:18:56;7.10;;;2.00;;
58896;SDS011;44677;52.378;10.400;2023-12-22T06:21:22;6.70;;;1.60;;
58896;SDS011;44677;52.378;10.400;2023-12-22T06:23:47;5.90;;;1.70;;
58896;SDS011;44677;52.378;10.400;2023-12-22T06:26:13;11.30;;;1.90;;
58896;SDS011;44677;52.378;10.400;2023-12-22T06:28:38;10.60;;;2.80;;
58896;SDS011;44677;52.378;10.400;2023-12-22T06:31:08;8.60;;;2.70;;
58896;SDS011;44677;52.378;10.400;2023-12-22T06:33:35;13.40;;;2.70;;
58896;SDS011;44677;52.378;10.400;2023-12-22T06:36:01;9.00;;;2.40;;
58896;SDS011;44677;52.378;10.400;2023-12-22T06:38:26;14.00;;;2.40;;
58896;SDS011;44677;52.378;10.400;2023-12-22T06:40:52;11.70;;;2.10;;
58896;SDS011;44677;52.378;10.400;2023-12-22T06:43:18;10.20;;;2.20;;
58896;SDS011;44677;52.378;10.400;2023-12-22T06:45:43;9.30;;;2.00;;
58896;SDS011;44677;52.378;10.400;2023-12-22T06:48:08;6.60;;;1.50;;
58896;SDS011;44677;52.378;10.400;2023-12-22T06:50:37;7.70;;;1.60;;
58896;SDS011;44677;52.378;10.400;2023-12-22T06:53:04;8.00;;;2.10;;
58896;SDS011;44677;52.378;10.400;2023-12-22T06:55:30;5.60;;;1.80;;
58896;SDS011;44677;52.378;10.400;2023-12-22T06:57:55;6.60;;;1.60;;
58896;SDS011;44677;52.378;10.400;2023-12-22T07:00:21;6.80;;;1.80;;
58896;SDS011;44677;52.378;10.400;2023-12-22T07:02:46;8.20;;;1.30;;
58896;SDS011;44677;52.378;10.400;2023-12-22T07:07:46;5.50;;;1.60;;
58896;SDS011;44677;52.378;10.400;2023-12-22T07:10:12;8.10;;;1.80;;
58896;SDS011;44677;52.378;10.400;2023-12-22T07:12:37;3.40;;;1.20;;
58896;SDS011;44677;52.378;10.400;2023-12-22T07:15:05;6.60;;;1.60;;
58896;SDS011;44677;52.378;10.400;2023-12-22T07:17:34;6.70;;;1.90;;
58896;SDS011;44677;52.378;10.400;2023-12-22T07:20:00;4.50;;;1.60;;
58896;SDS011;44677;52.378;10.400;2023-12-22T07:22:28;3.90;;;1.60;;
58896;SDS011;44677;52.378;10.400;2023-12-22T07:24:53;3.50;;;1.40;;
58896;SDS011;44677;52.378;10.400;2023-12-22T07:27:20;2.00;;;1.30;;
58896;SDS011;44677;52.378;10.400;2023-12-22T07:29:46;5.70;;;1.30;;
58896;SDS011;44677;52.378;10.400;2023-12-22T07:32:11;3.50;;;1.00;;
58896;SDS011;44677;52.378;10.400;2023-12-22T07:34:37;6.00;;;1.30;;
58896;SDS011;44677;52.378;10.400;2023-12-22T07:37:03;5.50;;;1.70;;
58896;SDS011;44677;52.378;10.400;2023-12-22T07:39:30;2.90;;;1.00;;
58896;SDS011;44677;52.378;10.400;2023-12-22T07:41:55;2.10;;;1.10;;
58896;SDS011;44677;52.378;10.400;2023-12-22T07:44:20;4.90;;;1.50;;
58896;SDS011;44677;52.378;10.400;2023-12-22T07:46:49;5.50;;;1.40;;
58896;SDS011;44677;52.378;10.400;2023-12-22T07:49:21;5.70;;;1.10;;
58896;SDS011;44677;52.378;10.400;2023-12-22T07:51:46;5.70;;;1.60;;
58896;SDS011;44677;52.378;10.400;2023-12-22T07:54:12;3.40;;;1.10;;
58896;SDS011;44677;52.378;10.400;2023-12-22T07:56:37;3.70;;;1.00;;
58896;SDS011;44677;52.378;10.400;2023-12-22T07:59:02;2.90;;;1.00;;
58896;SDS011;44677;52.378;10.400;2023-12-22T08:01:28;7.30;;;1.20;;
58896;SDS011;44677;52.378;10.400;2023-12-22T08:03:53;5.10;;;0.90;;
58896;SDS011;44677;52.378;10.400;2023-12-22T08:06:19;6.90;;;1.50;;
58896;SDS011;44677;52.378;10.400;2023-12-22T08:08:44;5.60;;;1.50;;
58896;SDS011;44677;52.378;10.400;2023-12-22T08:11:09;4.50;;;1.60;;
58896;SDS011;44677;52.378;10.400;2023-12-22T08:13:35;10.10;;;1.60;;
58896;SDS011;44677;52.378;10.400;2023-12-22T08:16:00;6.80;;;1.50;;
58896;SDS011;44677;52.378;10.400;2023-12-22T08:18:25;6.80;;;1.50;;
58896;SDS011;44677;52.378;10.400;2023-12-22T08:20:51;8.20;;;1.50;;
58896;SDS011;44677;52.378;10.400;2023-12-22T08:23:16;7.70;;;1.80;;
58896;SDS011;44677;52.378;10.400;2023-12-22T08:25:42;7.30;;;2.00;;
58896;SDS011;44677;52.378;10.400;2023-12-22T08:28:07;6.50;;;1.50;;
58896;SDS011;44677;52.378;10.400;2023-12-22T08:30:32;3.40;;;1.30;;
58896;SDS011;44677;52.378;10.400;2023-12-22T08:32:58;5.90;;;1.50;;
58896;SDS011;44677;52.378;10.400;2023-12-22T08:35:24;3.90;;;1.60;;
58896;SDS011;44677;52.378;10.400;2023-12-22T08:37:49;8.20;;;2.00;;
58896;SDS011;44677;52.378;10.400;2023-12-22T08:40:15;9.90;;;1.80;;
58896;SDS011;44677;52.378;10.400;2023-12-22T08:42:40;9.60;;;2.00;;
58896;SDS011;44677;52.378;10.400;2023-12-22T08:45:05;7.70;;;1.90;;
58896;SDS011;44677;52.378;10.400;2023-12-22T08:47:31;7.30;;;1.80;;
58896;SDS011;44677;52.378;10.400;2023-12-22T08:49:57;11.20;;;2.60;;
58896;SDS011;44677;52.378;10.400;2023-12-22T08:52:22;10.10;;;2.90;;
58896;SDS011;44677;52.378;10.400;2023-12-22T08:54:47;10.10;;;2.30;;
58896;SDS011;44677;52.378;10.400;2023-12-22T08:57:13;9.20;;;2.30;;
58896;SDS011;44677;52.378;10.400;2023-12-22T08:59:38;7.00;;;2.00;;
58896;SDS011;44677;52.378;10.400;2023-12-22T09:02:03;13.10;;;2.50;;
58896;SDS011;44677;52.378;10.400;2023-12-22T09:04:29;12.70;;;2.60;;
58896;SDS011;44677;52.378;10.400;2023-12-22T09:06:54;20.70;;;3.10;;
58896;SDS011;44677;52.378;10.400;2023-12-22T09:09:20;12.30;;;2.70;;
58896;SDS011;44677;52.378;10.400;2023-12-22T09:11:47;14.00;;;2.70;;
58896;SDS011;44677;52.378;10.400;2023-12-22T09:14:12;9.20;;;2.50;;
58896;SDS011;44677;52.378;10.400;2023-12-22T09:16:37;12.90;;;2.60;;
58896;SDS011;44677;52.378;10.400;2023-12-22T09:19:03;10.00;;;2.60;;
58896;SDS011;44677;52.378;10.400;2023-12-22T09:21:29;19.30;;;3.30;;
58896;SDS011;44677;52.378;10.400;2023-12-22T09:23:54;13.00;;;2.70;;
58896;SDS011;44677;52.378;10.400;2023-12-22T09:26:20;20.30;;;3.30;;
58896;SDS011;44677;52.378;10.400;2023-12-22T09:28:46;14.80;;;3.50;;
58896;SDS011;44677;52.378;10.400;2023-12-22T09:31:11;11.00;;;3.40;;
58896;SDS011;44677;52.378;10.400;2023-12-22T09:33:40;18.70;;;3.10;;
58896;SDS011;44677;52.378;10.400;2023-12-22T09:38:32;9.90;;;2.50;;
58896;SDS011;44677;52.378;10.400;2023-12-22T09:40:57;14.60;;;3.40;;
58896;SDS011;44677;52.378;10.400;2023-12-22T09:43:24;12.30;;;3.00;;
58896;SDS011;44677;52.378;10.400;2023-12-22T09:45:49;21.90;;;3.40;;
58896;SDS011;44677;52.378;10.400;2023-12-22T09:48:17;11.10;;;2.80;;
58896;SDS011;44677;52.378;10.400;2023-12-22T09:50:43;12.40;;;2.90;;
58896;SDS011;44677;52.378;10.400;2023-12-22T09:53:10;8.50;;;2.40;;
58896;SDS011;44677;52.378;10.400;2023-12-22T09:55:38;7.90;;;2.50;;
58896;SDS011;44677;52.378;10.400;2023-12-22T09:58:06;9.20;;;2.40;;
58896;SDS011;44677;52.378;10.400;2023-12-22T10:00:33;10.30;;;2.50;;
58896;SDS011;44677;52.378;10.400;2023-12-22T10:03:01;11.80;;;2.40;;
58896;SDS011;44677;52.378;10.400;2023-12-22T10:05:27;11.80;;;2.20;;
58896;SDS011;44677;52.378;10.400;2023-12-22T10:07:53;11.80;;;2.40;;
58896;SDS011;44677;52.378;10.400;2023-12-22T10:10:18;16.40;;;2.70;;
58896;SDS011;44677;52.378;10.400;2023-12-22T10:12:45;10.70;;;2.60;;
58896;SDS011;44677;52.378;10.400;2023-12-22T10:15:12;11.80;;;2.40;;
58896;SDS011;44677;52.378;10.400;2023-12-22T10:17:37;11.80;;;2.90;;
58896;SDS011;44677;52.378;10.400;2023-12-22T10:20:03;14.10;;;2.90;;
58896;SDS011;44677;52.378;10.400;2023-12-22T10:22:29;12.30;;;2.60;;
58896;SDS011;44677;52.378;10.400;2023-12-22T10:24:54;21.30;;;3.60;;
58896;SDS011;44677;52.378;10.400;2023-12-22T10:27:20;11.60;;;2.50;;
58896;SDS011;44677;52.378;10.400;2023-12-22T10:29:58;17.90;;;2.90;;
58896;SDS011;44677;52.378;10.400;2023-12-22T10:32:23;12.60;;;2.70;;
58896;SDS011;44677;52.378;10.400;2023-12-22T10:34:50;10.80;;;2.80;;
58896;SDS011;44677;52.378;10.400;2023-12-22T10:37:17;11.10;;;2.90;;
58896;SDS011;44677;52.378;10.400;2023-12-22T10:39:42;12.20;;;3.00;;
58896;SDS011;44677;52.378;10.400;2023-12-22T10:42:08;8.90;;;2.10;;
58896;SDS011;44677;52.378;10.400;2023-12-22T10:44:34;8.10;;;2.00;;
58896;SDS011;44677;52.378;10.400;2023-12-22T10:47:00;15.50;;;2.80;;
58896;SDS011;44677;52.378;10.400;2023-12-22T10:49:26;8.80;;;2.40;;
58896;SDS011;44677;52.378;10.400;2023-12-22T10:51:51;7.10;;;1.80;;
58896;SDS011;44677;52.378;10.400;2023-12-22T10:54:17;8.20;;;2.20;;
58896;SDS011;44677;52.378;10.400;2023-12-22T10:56:43;11.50;;;2.00;;
58896;SDS011;44677;52.378;10.400;2023-12-22T10:59:09;8.60;;;2.20;;
58896;SDS011;44677;52.378;10.400;2023-12-22T11:01:37;10.40;;;2.20;;
58896;SDS011;44677;52.378;10.400;2023-12-22T11:04:13;6.60;;;2.00;;
58896;SDS011;44677;52.378;10.400;2023-12-22T11:06:39;5.60;;;1.20;;
58896;SDS011;44677;52.378;10.400;2023-12-22T11:09:08;6.60;;;2.00;;
58896;SDS011;44677;52.378;10.400;2023-12-22T11:11:38;5.50;;;1.20;;
58896;SDS011;44677;52.378;10.400;2023-12-22T11:14:05;4.10;;;1.20;;
58896;SDS011;44677;52.378;10.400;2023-12-22T11:16:33;3.40;;;1.00;;
58896;SDS011;44677;52.378;10.400;2023-12-22T11:19:02;3.30;;;0.90;;
58896;SDS011;44677;52.378;10.400;2023-12-22T11:21:28;6.70;;;1.10;;
58896;SDS011;44677;52.378;10.400;2023-12-22T11:23:54;5.10;;;0.80;;
58896;SDS011;44677;52.378;10.400;2023-12-22T11:26:22;4.10;;;1.00;;
58896;SDS011;44677;52.378;10.400;2023-12-22T11:28:49;2.60;;;0.80;;
58896;SDS011;44677;52.378;10.400;2023-12-22T11:31:16;2.10;;;0.90;;
58896;SDS011;44677;52.378;10.400;2023-12-22T11:33:49;4.10;;;1.00;;
58896;SDS011;44677;52.378;10.400;2023-12-22T11:36:16;4.90;;;1.00;;
58896;SDS011;44677;52.378;10.400;2023-12-22T11:38:43;6.80;;;1.10;;
58896;SDS011;44677;52.378;10.400;2023-12-22T11:41:10;4.60;;;0.90;;
58896;SDS011;44677;52.378;10.400;2023-12-22T11:43:38;1.70;;;0.80;;
58896;SDS011;44677;52.378;10.400;2023-12-22T11:46:04;7.40;;;1.50;;
58896;SDS011;44677;52.378;10.400;2023-12-22T11:48:30;2.10;;;0.70;;
58896;SDS011;44677;52.378;10.400;2023-12-22T11:50:55;5.90;;;1.20;;
58896;SDS011;44677;52.378;10.400;2023-12-22T11:53:21;3.10;;;1.00;;
58896;SDS011;44677;52.378;10.400;2023-12-22T11:55:58;4.00;;;0.90;;
58896;SDS011;44677;52.378;10.400;2023-12-22T12:01:01;1.80;;;0.80;;
58896;SDS011;44677;52.378;10.400;2023-12-22T12:03:32;2.90;;;1.10;;
58896;SDS011;44677;52.378;10.400;2023-12-22T12:06:10;5.10;;;1.30;;
58896;SDS011;44677;52.378;10.400;2023-12-22T12:08:36;5.10;;;1.30;;
58896;SDS011;44677;52.378;10.400;2023-12-22T12:11:01;4.50;;;1.10;;
58896;SDS011;44677;52.378;10.400;2023-12-22T12:13:31;4.00;;;1.10;;
58896;SDS011;44677;52.378;10.400;2023-12-22T12:15:58;5.60;;;1.50;;
58896;SDS011;44677;52.378;10.400;2023-12-22T12:18:30;6.30;;;1.30;;
58896;SDS011;44677;52.378;10.400;2023-12-22T12:21:01;1.20;;;1.10;;
58896;SDS011;44677;52.378;10.400;2023-12-22T12:23:27;3.70;;;1.10;;
58896;SDS011;44677;52.378;10.400;2023-12-22T12:26:08;1.80;;;0.90;;
58896;SDS011;44677;52.378;10.400;2023-12-22T12:28:36;3.30;;;1.20;;
58896;SDS011;44677;52.378;10.400;2023-12-22T12:31:06;2.00;;;1.10;;
58896;SDS011;44677;52.378;10.400;2023-12-22T12:33:38;5.00;;;1.30;;
58896;SDS011;44677;52.378;10.400;2023-12-22T12:36:05;5.50;;;1.50;;
58896;SDS011;44677;52.378;10.400;2023-12-22T12:38:40;5.10;;;1.60;;
58896;SDS011;44677;52.378;10.400;2023-12-22T12:41:09;3.10;;;1.20;;
58896;SDS011;44677;52.378;10.400;2023-12-22T12:43:37;6.90;;;1.80;;
58896;SDS011;44677;52.378;10.400;2023-12-22T12:46:07;3.90;;;1.60;;
58896;SDS011;44677;52.378;10.400;2023-12-22T12:48:32;3.20;;;1.30;;
58896;SDS011;44677;52.378;10.400;2023-12-22T12:51:04;3.30;;;1.50;;
58896;SDS011;44677;52.378;10.400;2023-12-22T12:53:34;1.60;;;1.10;;
58896;SDS011;44677;52.378;10.400;2023-12-22T12:56:01;2.50;;;1.30;;
58896;SDS011;44677;52.378;10.400;2023-12-22T12:58:27;4.60;;;1.50;;
58896;SDS011;44677;52.378;10.400;2023-12-22T13:00:54;4.90;;;1.40;;
58896;SDS011;44677;52.378;10.400;2023-12-22T13:03:29;5.60;;;1.40;;
58896;SDS011;44677;52.378;10.400;2023-12-22T13:06:05;4.40;;;1.40;;
58896;SDS011;44677;52.378;10.400;2023-12-22T13:08:31;3.80;;;1.40;;
58896;SDS011;44677;52.378;10.400;2023-12-22T13:10:59;4.00;;;1.60;;
58896;SDS011;44677;52.378;10.400;2023-12-22T13:13:26;8.90;;;2.50;;
58896;SDS011;44677;52.378;10.400;2023-12-22T13:15:51;4.30;;;1.50;;
58896;SDS011;44677;52.378;10.400;2023-12-22T13:18:17;5.40;;;1.60;;
58896;SDS011;44677;52.378;10.400;2023-12-22T13:20:43;4.00;;;1.30;;
58896;SDS011;44677;52.378;10.400;2023-12-22T13:23:08;6.50;;;1.50;;
58896;SDS011;44677;52.378;10.400;2023-12-22T13:25:40;6.40;;;1.60;;
58896;SDS011;44677;52.378;10.400;2023-12-22T13:28:05;4.00;;;1.70;;
58896;SDS011;44677;52.378;10.400;2023-12-22T13:30:34;7.70;;;2.30;;
58896;SDS011;44677;52.378;10.400;2023-12-22T13:33:01;3.30;;;1.50;;
58896;SDS011;44677;52.378;10.400;2023-12-22T13:35:28;5.40;;;1.90;;
58896;SDS011;44677;52.378;10.400;2023-12-22T13:37:53;8.20;;;1.90;;
58896;SDS011;44677;52.378;10.400;2023-12-22T13:40:19;5.80;;;2.20;;
58896;SDS011;44677;52.378;10.400;2023-12-22T13:42:45;8.80;;;2.10;;
58896;SDS011;44677;52.378;10.400;2023-12-22T13:45:10;7.90;;;1.90;;
58896;SDS011;44677;52.378;10.400;2023-12-22T13:47:39;5.00;;;1.90;;
58896;SDS011;44677;52.378;10.400;2023-12-22T13:50:13;11.60;;;2.40;;
58896;SDS011;44677;52.378;10.400;2023-12-22T13:52:39;8.70;;;2.00;;
58896;SDS011;44677;52.378;10.400;2023-12-22T13:55:11;10.50;;;2.20;;
58896;SDS011;44677;52.378;10.400;2023-12-22T13:57:37;9.00;;;2.40;;
58896;SDS011;44677;52.378;10.400;2023-12-22T14:02:45;10.50;;;2.50;;
58896;SDS011;44677;52.378;10.400;2023-12-22T14:05:14;10.90;;;2.40;;
58896;SDS011;44677;52.378;10.400;2023-12-22T14:07:40;11.90;;;2.30;;
58896;SDS011;44677;52.378;10.400;2023-12-22T14:10:09;5.70;;;2.10;;
58896;SDS011;44677;52.378;10.400;2023-12-22T14:12:35;5.90;;;1.40;;
58896;SDS011;44677;52.378;10.400;2023-12-22T14:15:03;7.10;;;1.80;;
58896;SDS011;44677;52.378;10.400;2023-12-22T14:17:34;3.00;;;1.10;;
58896;SDS011;44677;52.378;10.400;2023-12-22T14:19:59;6.60;;;1.60;;
58896;SDS011;44677;52.378;10.400;2023-12-22T14:22:25;6.20;;;1.60;;
58896;SDS011;44677;52.378;10.400;2023-12-22T14:24:51;6.70;;;1.60;;
58896;SDS011;44677;52.378;10.400;2023-12-22T14:27:17;6.30;;;1.50;;
58896;SDS011;44677;52.378;10.400;2023-12-22T14:29:45;5.80;;;1.50;;
58896;SDS011;44677;52.378;10.400;2023-12-22T14:32:11;6.10;;;1.70;;
58896;SDS011;44677;52.378;10.400;2023-12-22T14:34:37;7.80;;;1.60;;
58896;SDS011;44677;52.378;10.400;2023-12-22T14:37:03;4.40;;;1.10;;
58896;SDS011;44677;52.378;10.400;2023-12-22T14:39:28;7.20;;;1.80;;